sensor_id;sensor_type;location;lat;lon;timestamp;temperature;humidity
4306;DHT22;2166;49.926;8.608;2024-01-30T00:00:37;2.50;63.40
4306;DHT22;2166;49.926;8.608;2024-01-30T00:03:05;2.50;63.20
4306;DHT22;2166;49.926;8.608;2024-01-30T00:05:33;2.50;64.00
4306;DHT22;2166;49.926;8.608;2024-01-30T00:08:02;2.50;65.00
4306;DHT22;2166;49.926;8.608;2024-01-30T00:10:31;2.40;65.10
4306;DHT22;2166;49.926;8.608;2024-01-30T00:12:59;2.40;65.40
4306;DHT22;2166;49.926;8.608;2024-01-30T00:15:28;2.20;65.70
4306;DHT22;2166;49.926;8.608;2024-01-30T00:17:56;2.30;64.30
4306;DHT22;2166;49.926;8.608;2024-01-30T00:20:25;2.30;64.00
4306;DHT22;2166;49.926;8.608;2024-01-30T00:22:53;2.30;63.90
4306;DHT22;2166;49.926;8.608;2024-01-30T00:25:21;2.30;64.60
4306;DHT22;2166;49.926;8.608;2024-01-30T00:27:50;2.30;64.80
4306;DHT22;2166;49.926;8.608;2024-01-30T00:30:19;2.20;64.90
4306;DHT22;2166;49.926;8.608;2024-01-30T00:32:49;2.20;63.50
4306;DHT22;2166;49.926;8.608;2024-01-30T00:35:17;2.30;63.40
4306;DHT22;2166;49.926;8.608;2024-01-30T00:37:46;2.30;64.40
4306;DHT22;2166;49.926;8.608;2024-01-30T00:40:14;2.30;64.60
4306;DHT22;2166;49.926;8.608;2024-01-30T00:42:43;2.30;64.10
4306;DHT22;2166;49.926;8.608;2024-01-30T00:45:15;2.30;64.70
4306;DHT22;2166;49.926;8.608;2024-01-30T00:47:43;2.30;64.40
4306;DHT22;2166;49.926;8.608;2024-01-30T00:50:13;2.30;64.90
4306;DHT22;2166;49.926;8.608;2024-01-30T00:52:41;2.30;65.60
4306;DHT22;2166;49.926;8.608;2024-01-30T00:55:12;2.30;65.10
4306;DHT22;2166;49.926;8.608;2024-01-30T00:57:41;2.30;65.10
4306;DHT22;2166;49.926;8.608;2024-01-30T01:00:13;2.30;64.90
4306;DHT22;2166;49.926;8.608;2024-01-30T01:02:44;2.20;64.60
4306;DHT22;2166;49.926;8.608;2024-01-30T01:05:14;2.00;64.50
4306;DHT22;2166;49.926;8.608;2024-01-30T01:07:42;1.80;63.80
4306;DHT22;2166;49.926;8.608;2024-01-30T01:10:10;1.60;62.50
4306;DHT22;2166;49.926;8.608;2024-01-30T01:12:40;1.50;61.20
4306;DHT22;2166;49.926;8.608;2024-01-30T01:15:10;1.40;59.70
4306;DHT22;2166;49.926;8.608;2024-01-30T01:17:39;1.40;59.00
4306;DHT22;2166;49.926;8.608;2024-01-30T01:20:08;1.40;58.60
4306;DHT22;2166;49.926;8.608;2024-01-30T01:22:39;1.40;58.00
4306;DHT22;2166;49.926;8.608;2024-01-30T01:25:09;1.50;57.80
4306;DHT22;2166;49.926;8.608;2024-01-30T01:27:37;1.60;57.70
4306;DHT22;2166;49.926;8.608;2024-01-30T01:30:10;1.60;57.80
4306;DHT22;2166;49.926;8.608;2024-01-30T01:32:38;1.70;58.10
4306;DHT22;2166;49.926;8.608;2024-01-30T01:35:12;1.70;58.40
4306;DHT22;2166;49.926;8.608;2024-01-30T01:37:41;1.60;59.10
4306;DHT22;2166;49.926;8.608;2024-01-30T01:40:10;1.60;58.90
4306;DHT22;2166;49.926;8.608;2024-01-30T01:42:38;1.60;59.00
4306;DHT22;2166;49.926;8.608;2024-01-30T01:45:10;1.50;58.90
4306;DHT22;2166;49.926;8.608;2024-01-30T01:47:41;1.50;59.00
4306;DHT22;2166;49.926;8.608;2024-01-30T01:50:10;1.60;59.10
4306;DHT22;2166;49.926;8.608;2024-01-30T01:52:41;1.50;59.60
4306;DHT22;2166;49.926;8.608;2024-01-30T01:55:10;1.50;59.70
4306;DHT22;2166;49.926;8.608;2024-01-30T01:57:38;1.50;59.10
4306;DHT22;2166;49.926;8.608;2024-01-30T02:00:08;1.50;58.90
4306;DHT22;2166;49.926;8.608;2024-01-30T02:02:42;1.50;58.70
4306;DHT22;2166;49.926;8.608;2024-01-30T02:05:12;1.50;58.90
4306;DHT22;2166;49.926;8.608;2024-01-30T02:07:43;1.50;59.10
4306;DHT22;2166;49.926;8.608;2024-01-30T02:10:12;1.40;59.20
4306;DHT22;2166;49.926;8.608;2024-01-30T02:12:41;1.40;59.30
4306;DHT22;2166;49.926;8.608;2024-01-30T02:15:13;1.40;59.60
4306;DHT22;2166;49.926;8.608;2024-01-30T02:17:42;1.30;59.90
4306;DHT22;2166;49.926;8.608;2024-01-30T02:20:11;1.10;59.70
4306;DHT22;2166;49.926;8.608;2024-01-30T02:22:43;1.10;59.10
4306;DHT22;2166;49.926;8.608;2024-01-30T02:25:11;1.00;58.80
4306;DHT22;2166;49.926;8.608;2024-01-30T02:27:39;0.90;58.40
4306;DHT22;2166;49.926;8.608;2024-01-30T02:30:09;0.80;58.00
4306;DHT22;2166;49.926;8.608;2024-01-30T02:32:37;0.80;57.70
4306;DHT22;2166;49.926;8.608;2024-01-30T02:35:06;0.80;57.30
4306;DHT22;2166;49.926;8.608;2024-01-30T02:37:34;0.80;56.90
4306;DHT22;2166;49.926;8.608;2024-01-30T02:40:06;0.90;56.70
4306;DHT22;2166;49.926;8.608;2024-01-30T02:42:34;0.90;56.70
4306;DHT22;2166;49.926;8.608;2024-01-30T02:45:03;0.90;57.10
4306;DHT22;2166;49.926;8.608;2024-01-30T02:47:31;0.90;57.40
4306;DHT22;2166;49.926;8.608;2024-01-30T02:49:59;0.90;57.10
4306;DHT22;2166;49.926;8.608;2024-01-30T02:52:28;0.90;57.20
4306;DHT22;2166;49.926;8.608;2024-01-30T02:54:56;0.80;57.00
4306;DHT22;2166;49.926;8.608;2024-01-30T02:57:26;0.80;56.70
4306;DHT22;2166;49.926;8.608;2024-01-30T02:59:55;0.80;56.60
4306;DHT22;2166;49.926;8.608;2024-01-30T03:02:23;0.80;56.60
4306;DHT22;2166;49.926;8.608;2024-01-30T03:04:52;0.80;56.50
4306;DHT22;2166;49.926;8.608;2024-01-30T03:07:21;0.80;56.40
4306;DHT22;2166;49.926;8.608;2024-01-30T03:09:49;0.80;56.20
4306;DHT22;2166;49.926;8.608;2024-01-30T03:12:18;0.90;56.00
4306;DHT22;2166;49.926;8.608;2024-01-30T03:14:48;0.80;56.50
4306;DHT22;2166;49.926;8.608;2024-01-30T03:17:17;0.80;57.00
4306;DHT22;2166;49.926;8.608;2024-01-30T03:19:45;0.70;57.00
4306;DHT22;2166;49.926;8.608;2024-01-30T03:22:14;0.60;56.80
4306;DHT22;2166;49.926;8.608;2024-01-30T03:24:43;0.60;56.60
4306;DHT22;2166;49.926;8.608;2024-01-30T03:27:12;0.70;56.20
4306;DHT22;2166;49.926;8.608;2024-01-30T03:29:40;0.80;55.60
4306;DHT22;2166;49.926;8.608;2024-01-30T03:32:10;0.90;55.40
4306;DHT22;2166;49.926;8.608;2024-01-30T03:34:38;0.90;55.90
4306;DHT22;2166;49.926;8.608;2024-01-30T03:37:06;0.90;56.50
4306;DHT22;2166;49.926;8.608;2024-01-30T03:39:35;0.90;56.80
4306;DHT22;2166;49.926;8.608;2024-01-30T03:42:04;1.00;56.60
4306;DHT22;2166;49.926;8.608;2024-01-30T03:44:32;1.00;57.00
4306;DHT22;2166;49.926;8.608;2024-01-30T03:47:00;0.90;57.30
4306;DHT22;2166;49.926;8.608;2024-01-30T03:49:29;0.90;57.50
4306;DHT22;2166;49.926;8.608;2024-01-30T03:51:58;1.00;57.30
4306;DHT22;2166;49.926;8.608;2024-01-30T03:54:26;1.00;57.60
4306;DHT22;2166;49.926;8.608;2024-01-30T03:56:55;1.00;58.00
4306;DHT22;2166;49.926;8.608;2024-01-30T03:59:23;0.90;58.40
4306;DHT22;2166;49.926;8.608;2024-01-30T04:01:51;0.90;58.60
4306;DHT22;2166;49.926;8.608;2024-01-30T04:04:20;0.80;59.20
4306;DHT22;2166;49.926;8.608;2024-01-30T04:06:50;0.80;58.80
4306;DHT22;2166;49.926;8.608;2024-01-30T04:09:18;0.80;58.60
4306;DHT22;2166;49.926;8.608;2024-01-30T04:11:46;0.90;57.90
4306;DHT22;2166;49.926;8.608;2024-01-30T04:14:15;0.90;58.50
4306;DHT22;2166;49.926;8.608;2024-01-30T04:16:43;0.90;59.20
4306;DHT22;2166;49.926;8.608;2024-01-30T04:19:11;1.00;59.00
4306;DHT22;2166;49.926;8.608;2024-01-30T04:21:40;1.10;58.80
4306;DHT22;2166;49.926;8.608;2024-01-30T04:24:09;1.10;59.20
4306;DHT22;2166;49.926;8.608;2024-01-30T04:26:38;1.10;59.10
4306;DHT22;2166;49.926;8.608;2024-01-30T04:29:06;1.10;59.60
4306;DHT22;2166;49.926;8.608;2024-01-30T04:31:36;1.00;60.40
4306;DHT22;2166;49.926;8.608;2024-01-30T04:34:05;0.90;60.70
4306;DHT22;2166;49.926;8.608;2024-01-30T04:36:33;0.80;60.20
4306;DHT22;2166;49.926;8.608;2024-01-30T04:39:01;0.70;59.70
4306;DHT22;2166;49.926;8.608;2024-01-30T04:41:32;0.70;58.80
4306;DHT22;2166;49.926;8.608;2024-01-30T04:44:01;0.80;57.90
4306;DHT22;2166;49.926;8.608;2024-01-30T04:46:29;0.90;57.80
4306;DHT22;2166;49.926;8.608;2024-01-30T04:48:57;1.00;58.60
4306;DHT22;2166;49.926;8.608;2024-01-30T04:51:25;1.00;58.10
4306;DHT22;2166;49.926;8.608;2024-01-30T04:53:53;1.10;58.20
4306;DHT22;2166;49.926;8.608;2024-01-30T04:56:22;1.10;59.50
4306;DHT22;2166;49.926;8.608;2024-01-30T04:58:54;1.00;59.80
4306;DHT22;2166;49.926;8.608;2024-01-30T05:01:23;1.00;59.90
4306;DHT22;2166;49.926;8.608;2024-01-30T05:03:51;1.00;59.70
4306;DHT22;2166;49.926;8.608;2024-01-30T05:06:26;1.10;59.60
4306;DHT22;2166;49.926;8.608;2024-01-30T05:08:55;1.20;60.40
4306;DHT22;2166;49.926;8.608;2024-01-30T05:11:23;1.20;61.30
4306;DHT22;2166;49.926;8.608;2024-01-30T05:13:53;1.10;61.20
4306;DHT22;2166;49.926;8.608;2024-01-30T05:16:21;1.20;61.10
4306;DHT22;2166;49.926;8.608;2024-01-30T05:18:49;1.20;61.10
4306;DHT22;2166;49.926;8.608;2024-01-30T05:21:18;1.20;61.50
4306;DHT22;2166;49.926;8.608;2024-01-30T05:23:47;1.20;61.80
4306;DHT22;2166;49.926;8.608;2024-01-30T05:26:15;1.20;62.90
4306;DHT22;2166;49.926;8.608;2024-01-30T05:28:44;1.10;63.20
4306;DHT22;2166;49.926;8.608;2024-01-30T05:31:15;1.10;63.30
4306;DHT22;2166;49.926;8.608;2024-01-30T05:33:43;1.00;63.60
4306;DHT22;2166;49.926;8.608;2024-01-30T05:36:12;0.90;62.30
4306;DHT22;2166;49.926;8.608;2024-01-30T05:38:41;1.00;61.90
4306;DHT22;2166;49.926;8.608;2024-01-30T05:41:10;0.90;61.60
4306;DHT22;2166;49.926;8.608;2024-01-30T05:43:38;0.90;61.70
4306;DHT22;2166;49.926;8.608;2024-01-30T05:46:07;0.90;62.00
4306;DHT22;2166;49.926;8.608;2024-01-30T05:48:36;0.90;61.70
4306;DHT22;2166;49.926;8.608;2024-01-30T05:51:07;0.80;62.00
4306;DHT22;2166;49.926;8.608;2024-01-30T05:53:35;0.70;61.90
4306;DHT22;2166;49.926;8.608;2024-01-30T05:56:04;0.60;61.80
4306;DHT22;2166;49.926;8.608;2024-01-30T05:58:33;0.60;60.70
4306;DHT22;2166;49.926;8.608;2024-01-30T06:01:01;0.70;60.50
4306;DHT22;2166;49.926;8.608;2024-01-30T06:03:30;0.70;60.60
4306;DHT22;2166;49.926;8.608;2024-01-30T06:06:00;0.80;59.90
4306;DHT22;2166;49.926;8.608;2024-01-30T06:08:28;0.70;60.80
4306;DHT22;2166;49.926;8.608;2024-01-30T06:10:56;0.60;60.60
4306;DHT22;2166;49.926;8.608;2024-01-30T06:13:25;0.60;59.50
4306;DHT22;2166;49.926;8.608;2024-01-30T06:15:53;0.60;59.60
4306;DHT22;2166;49.926;8.608;2024-01-30T06:18:22;0.70;58.90
4306;DHT22;2166;49.926;8.608;2024-01-30T06:20:50;0.80;58.60
4306;DHT22;2166;49.926;8.608;2024-01-30T06:23:20;0.90;58.90
4306;DHT22;2166;49.926;8.608;2024-01-30T06:25:48;0.90;59.30
4306;DHT22;2166;49.926;8.608;2024-01-30T06:28:17;1.10;59.40
4306;DHT22;2166;49.926;8.608;2024-01-30T06:30:45;1.10;60.20
4306;DHT22;2166;49.926;8.608;2024-01-30T06:33:14;1.20;60.20
4306;DHT22;2166;49.926;8.608;2024-01-30T06:35:42;1.30;60.40
4306;DHT22;2166;49.926;8.608;2024-01-30T06:38:12;1.30;60.30
4306;DHT22;2166;49.926;8.608;2024-01-30T06:40:43;1.40;60.70
4306;DHT22;2166;49.926;8.608;2024-01-30T06:43:12;1.40;61.70
4306;DHT22;2166;49.926;8.608;2024-01-30T06:45:41;1.40;62.50
4306;DHT22;2166;49.926;8.608;2024-01-30T06:48:09;1.40;63.00
4306;DHT22;2166;49.926;8.608;2024-01-30T06:50:38;1.30;63.10
4306;DHT22;2166;49.926;8.608;2024-01-30T06:53:07;1.40;62.90
4306;DHT22;2166;49.926;8.608;2024-01-30T06:55:36;1.40;62.20
4306;DHT22;2166;49.926;8.608;2024-01-30T06:58:05;1.50;62.90
4306;DHT22;2166;49.926;8.608;2024-01-30T07:00:34;1.40;63.60
4306;DHT22;2166;49.926;8.608;2024-01-30T07:03:03;1.40;62.80
4306;DHT22;2166;49.926;8.608;2024-01-30T07:05:32;1.40;64.00
4306;DHT22;2166;49.926;8.608;2024-01-30T07:08:00;1.30;63.40
4306;DHT22;2166;49.926;8.608;2024-01-30T07:10:28;1.30;62.60
4306;DHT22;2166;49.926;8.608;2024-01-30T07:12:59;1.40;62.20
4306;DHT22;2166;49.926;8.608;2024-01-30T07:15:29;1.40;62.10
4306;DHT22;2166;49.926;8.608;2024-01-30T07:17:57;1.50;62.10
4306;DHT22;2166;49.926;8.608;2024-01-30T07:20:26;1.50;62.80
4306;DHT22;2166;49.926;8.608;2024-01-30T07:22:54;1.50;63.10
4306;DHT22;2166;49.926;8.608;2024-01-30T07:25:23;1.60;63.30
4306;DHT22;2166;49.926;8.608;2024-01-30T07:27:53;1.70;63.10
4306;DHT22;2166;49.926;8.608;2024-01-30T07:30:22;1.70;64.20
4306;DHT22;2166;49.926;8.608;2024-01-30T07:32:52;1.60;65.50
4306;DHT22;2166;49.926;8.608;2024-01-30T07:35:21;1.70;64.40
4306;DHT22;2166;49.926;8.608;2024-01-30T07:37:50;1.60;65.40
4306;DHT22;2166;49.926;8.608;2024-01-30T07:40:18;1.60;64.80
4306;DHT22;2166;49.926;8.608;2024-01-30T07:42:48;1.60;63.80
4306;DHT22;2166;49.926;8.608;2024-01-30T07:45:17;1.80;63.30
4306;DHT22;2166;49.926;8.608;2024-01-30T07:47:49;2.00;63.70
4306;DHT22;2166;49.926;8.608;2024-01-30T07:50:19;2.10;64.10
4306;DHT22;2166;49.926;8.608;2024-01-30T07:52:47;2.30;64.40
4306;DHT22;2166;49.926;8.608;2024-01-30T07:55:18;2.50;65.40
4306;DHT22;2166;49.926;8.608;2024-01-30T07:57:47;2.70;66.50
4306;DHT22;2166;49.926;8.608;2024-01-30T08:00:19;2.80;66.80
4306;DHT22;2166;49.926;8.608;2024-01-30T08:02:48;2.90;68.10
4306;DHT22;2166;49.926;8.608;2024-01-30T08:05:17;3.00;70.00
4306;DHT22;2166;49.926;8.608;2024-01-30T08:07:46;3.10;71.60
4306;DHT22;2166;49.926;8.608;2024-01-30T08:10:15;3.10;72.40
4306;DHT22;2166;49.926;8.608;2024-01-30T08:12:45;3.00;72.50
4306;DHT22;2166;49.926;8.608;2024-01-30T08:15:14;2.90;72.40
4306;DHT22;2166;49.926;8.608;2024-01-30T08:17:43;2.90;71.00
4306;DHT22;2166;49.926;8.608;2024-01-30T08:20:12;3.00;70.00
4306;DHT22;2166;49.926;8.608;2024-01-30T08:22:43;3.00;71.40
4306;DHT22;2166;49.926;8.608;2024-01-30T08:25:11;3.10;71.00
4306;DHT22;2166;49.926;8.608;2024-01-30T08:27:40;3.40;69.70
4306;DHT22;2166;49.926;8.608;2024-01-30T08:30:09;3.90;69.80
4306;DHT22;2166;49.926;8.608;2024-01-30T08:32:38;4.40;71.30
4306;DHT22;2166;49.926;8.608;2024-01-30T08:35:06;4.80;72.80
4306;DHT22;2166;49.926;8.608;2024-01-30T08:37:36;5.40;74.00
4306;DHT22;2166;49.926;8.608;2024-01-30T08:40:08;5.90;75.00
4306;DHT22;2166;49.926;8.608;2024-01-30T08:42:37;6.20;76.60
4306;DHT22;2166;49.926;8.608;2024-01-30T08:45:06;6.60;76.40
4306;DHT22;2166;49.926;8.608;2024-01-30T08:47:35;7.20;77.30
4306;DHT22;2166;49.926;8.608;2024-01-30T08:50:04;7.60;77.80
4306;DHT22;2166;49.926;8.608;2024-01-30T08:52:33;8.00;78.40
4306;DHT22;2166;49.926;8.608;2024-01-30T08:55:02;8.30;78.30
4306;DHT22;2166;49.926;8.608;2024-01-30T08:57:33;8.40;78.20
4306;DHT22;2166;49.926;8.608;2024-01-30T09:00:02;8.60;78.30
4306;DHT22;2166;49.926;8.608;2024-01-30T09:02:34;8.80;78.50
4306;DHT22;2166;49.926;8.608;2024-01-30T09:05:03;8.80;78.10
4306;DHT22;2166;49.926;8.608;2024-01-30T09:07:31;8.80;77.90
4306;DHT22;2166;49.926;8.608;2024-01-30T09:09:59;8.80;77.60
4306;DHT22;2166;49.926;8.608;2024-01-30T09:12:28;8.90;77.10
4306;DHT22;2166;49.926;8.608;2024-01-30T09:14:58;8.90;76.90
4306;DHT22;2166;49.926;8.608;2024-01-30T09:17:27;9.00;76.80
4306;DHT22;2166;49.926;8.608;2024-01-30T09:19:55;9.00;76.80
4306;DHT22;2166;49.926;8.608;2024-01-30T09:22:24;8.90;76.90
4306;DHT22;2166;49.926;8.608;2024-01-30T09:24:52;8.80;77.00
4306;DHT22;2166;49.926;8.608;2024-01-30T09:27:21;8.60;77.30
4306;DHT22;2166;49.926;8.608;2024-01-30T09:29:49;8.50;77.40
4306;DHT22;2166;49.926;8.608;2024-01-30T09:32:19;8.50;77.40
4306;DHT22;2166;49.926;8.608;2024-01-30T09:34:47;8.40;77.40
4306;DHT22;2166;49.926;8.608;2024-01-30T09:37:16;8.20;77.40
4306;DHT22;2166;49.926;8.608;2024-01-30T09:39:45;8.00;77.90
4306;DHT22;2166;49.926;8.608;2024-01-30T09:42:20;7.90;77.80
4306;DHT22;2166;49.926;8.608;2024-01-30T09:44:51;8.00;77.70
4306;DHT22;2166;49.926;8.608;2024-01-30T09:47:21;8.00;77.90
4306;DHT22;2166;49.926;8.608;2024-01-30T09:49:49;8.30;78.00
4306;DHT22;2166;49.926;8.608;2024-01-30T09:52:19;8.60;77.70
4306;DHT22;2166;49.926;8.608;2024-01-30T09:54:49;9.00;77.30
4306;DHT22;2166;49.926;8.608;2024-01-30T09:57:19;9.50;77.00
4306;DHT22;2166;49.926;8.608;2024-01-30T09:59:48;10.20;76.70
4306;DHT22;2166;49.926;8.608;2024-01-30T10:02:18;10.60;75.80
4306;DHT22;2166;49.926;8.608;2024-01-30T10:04:49;10.80;74.90
4306;DHT22;2166;49.926;8.608;2024-01-30T10:07:19;11.20;76.30
4306;DHT22;2166;49.926;8.608;2024-01-30T10:09:47;11.50;74.30
4306;DHT22;2166;49.926;8.608;2024-01-30T10:12:16;11.70;73.50
4306;DHT22;2166;49.926;8.608;2024-01-30T10:14:44;11.50;72.70
4306;DHT22;2166;49.926;8.608;2024-01-30T10:17:13;11.60;74.00
4306;DHT22;2166;49.926;8.608;2024-01-30T10:19:55;11.60;72.90
4306;DHT22;2166;49.926;8.608;2024-01-30T10:22:24;11.30;72.60
4306;DHT22;2166;49.926;8.608;2024-01-30T10:24:53;11.10;74.00
4306;DHT22;2166;49.926;8.608;2024-01-30T10:27:25;11.10;74.90
4306;DHT22;2166;49.926;8.608;2024-01-30T10:29:54;10.90;74.10
4306;DHT22;2166;49.926;8.608;2024-01-30T10:32:22;10.80;75.20
4306;DHT22;2166;49.926;8.608;2024-01-30T10:34:51;10.80;75.00
4306;DHT22;2166;49.926;8.608;2024-01-30T10:37:21;10.60;75.60
4306;DHT22;2166;49.926;8.608;2024-01-30T10:39:54;10.60;76.00
4306;DHT22;2166;49.926;8.608;2024-01-30T10:42:26;10.50;75.70
4306;DHT22;2166;49.926;8.608;2024-01-30T10:45:00;10.70;76.20
4306;DHT22;2166;49.926;8.608;2024-01-30T10:47:30;10.60;76.60
4306;DHT22;2166;49.926;8.608;2024-01-30T10:50:02;10.60;76.00
4306;DHT22;2166;49.926;8.608;2024-01-30T10:52:33;10.50;76.60
4306;DHT22;2166;49.926;8.608;2024-01-30T10:55:01;10.20;76.50
4306;DHT22;2166;49.926;8.608;2024-01-30T10:57:34;10.10;77.00
4306;DHT22;2166;49.926;8.608;2024-01-30T11:00:06;10.20;77.50
4306;DHT22;2166;49.926;8.608;2024-01-30T11:02:39;10.30;77.10
4306;DHT22;2166;49.926;8.608;2024-01-30T11:05:08;10.30;76.90
4306;DHT22;2166;49.926;8.608;2024-01-30T11:07:39;10.40;77.10
4306;DHT22;2166;49.926;8.608;2024-01-30T11:10:08;10.40;77.00
4306;DHT22;2166;49.926;8.608;2024-01-30T11:12:40;10.40;77.00
4306;DHT22;2166;49.926;8.608;2024-01-30T11:15:12;10.70;77.30
4306;DHT22;2166;49.926;8.608;2024-01-30T11:17:50;11.20;76.60
4306;DHT22;2166;49.926;8.608;2024-01-30T11:20:21;12.20;75.60
4306;DHT22;2166;49.926;8.608;2024-01-30T11:22:53;12.70;72.20
4306;DHT22;2166;49.926;8.608;2024-01-30T11:25:22;12.50;72.50
4306;DHT22;2166;49.926;8.608;2024-01-30T11:27:52;12.30;72.80
4306;DHT22;2166;49.926;8.608;2024-01-30T11:30:22;12.20;74.10
4306;DHT22;2166;49.926;8.608;2024-01-30T11:33:01;12.60;74.20
4306;DHT22;2166;49.926;8.608;2024-01-30T11:35:33;13.20;71.40
4306;DHT22;2166;49.926;8.608;2024-01-30T11:38:04;13.40;70.30
4306;DHT22;2166;49.926;8.608;2024-01-30T11:40:34;13.30;69.10
4306;DHT22;2166;49.926;8.608;2024-01-30T11:43:05;12.80;70.60
4306;DHT22;2166;49.926;8.608;2024-01-30T11:45:34;12.20;72.50
4306;DHT22;2166;49.926;8.608;2024-01-30T11:48:03;11.90;74.50
4306;DHT22;2166;49.926;8.608;2024-01-30T11:50:33;11.80;74.60
4306;DHT22;2166;49.926;8.608;2024-01-30T11:53:04;11.70;75.20
4306;DHT22;2166;49.926;8.608;2024-01-30T11:55:33;11.80;75.40
4306;DHT22;2166;49.926;8.608;2024-01-30T11:58:04;12.00;75.70
4306;DHT22;2166;49.926;8.608;2024-01-30T12:00:32;12.10;74.00
4306;DHT22;2166;49.926;8.608;2024-01-30T12:03:02;12.30;74.50
4306;DHT22;2166;49.926;8.608;2024-01-30T12:05:33;12.40;73.50
4306;DHT22;2166;49.926;8.608;2024-01-30T12:08:04;12.50;73.70
4306;DHT22;2166;49.926;8.608;2024-01-30T12:10:35;12.30;74.70
4306;DHT22;2166;49.926;8.608;2024-01-30T12:13:03;12.20;74.50
4306;DHT22;2166;49.926;8.608;2024-01-30T12:15:32;12.10;75.00
4306;DHT22;2166;49.926;8.608;2024-01-30T12:18:04;12.00;75.50
4306;DHT22;2166;49.926;8.608;2024-01-30T12:20:34;11.90;75.50
4306;DHT22;2166;49.926;8.608;2024-01-30T12:23:05;11.90;75.60
4306;DHT22;2166;49.926;8.608;2024-01-30T12:25:33;12.10;75.80
4306;DHT22;2166;49.926;8.608;2024-01-30T12:28:02;12.10;75.30
4306;DHT22;2166;49.926;8.608;2024-01-30T12:30:31;12.40;75.50
4306;DHT22;2166;49.926;8.608;2024-01-30T12:33:00;12.70;74.60
4306;DHT22;2166;49.926;8.608;2024-01-30T12:35:29;12.90;73.40
4306;DHT22;2166;49.926;8.608;2024-01-30T12:38:00;12.90;74.00
4306;DHT22;2166;49.926;8.608;2024-01-30T12:40:29;12.80;73.30
4306;DHT22;2166;49.926;8.608;2024-01-30T12:43:03;12.40;74.50
4306;DHT22;2166;49.926;8.608;2024-01-30T12:45:31;12.00;75.90
4306;DHT22;2166;49.926;8.608;2024-01-30T12:48:03;12.10;76.30
4306;DHT22;2166;49.926;8.608;2024-01-30T12:50:34;12.30;76.10
4306;DHT22;2166;49.926;8.608;2024-01-30T12:53:03;12.60;76.00
4306;DHT22;2166;49.926;8.608;2024-01-30T12:55:34;13.00;75.30
4306;DHT22;2166;49.926;8.608;2024-01-30T12:58:03;13.20;74.20
4306;DHT22;2166;49.926;8.608;2024-01-30T13:00:32;13.20;73.50
4306;DHT22;2166;49.926;8.608;2024-01-30T13:03:02;13.20;74.60
4306;DHT22;2166;49.926;8.608;2024-01-30T13:05:30;13.30;73.90
4306;DHT22;2166;49.926;8.608;2024-01-30T13:07:59;13.50;73.90
4306;DHT22;2166;49.926;8.608;2024-01-30T13:10:27;13.90;73.50
4306;DHT22;2166;49.926;8.608;2024-01-30T13:12:57;14.20;71.90
4306;DHT22;2166;49.926;8.608;2024-01-30T13:15:26;14.30;71.60
4306;DHT22;2166;49.926;8.608;2024-01-30T13:17:54;14.60;71.20
4306;DHT22;2166;49.926;8.608;2024-01-30T13:20:22;14.50;70.40
4306;DHT22;2166;49.926;8.608;2024-01-30T13:22:51;14.40;70.50
4306;DHT22;2166;49.926;8.608;2024-01-30T13:25:19;14.20;71.80
4306;DHT22;2166;49.926;8.608;2024-01-30T13:27:50;14.10;72.60
4306;DHT22;2166;49.926;8.608;2024-01-30T13:30:20;13.80;72.80
4306;DHT22;2166;49.926;8.608;2024-01-30T13:32:49;13.50;72.80
4306;DHT22;2166;49.926;8.608;2024-01-30T13:35:17;13.20;73.20
4306;DHT22;2166;49.926;8.608;2024-01-30T13:37:46;12.80;74.80
4306;DHT22;2166;49.926;8.608;2024-01-30T13:40:16;12.50;75.40
4306;DHT22;2166;49.926;8.608;2024-01-30T13:42:45;12.20;76.40
4306;DHT22;2166;49.926;8.608;2024-01-30T13:45:13;12.20;76.70
4306;DHT22;2166;49.926;8.608;2024-01-30T13:47:43;12.00;76.50
4306;DHT22;2166;49.926;8.608;2024-01-30T13:50:12;11.90;76.60
4306;DHT22;2166;49.926;8.608;2024-01-30T13:52:42;11.60;76.80
4306;DHT22;2166;49.926;8.608;2024-01-30T13:55:12;11.50;77.20
4306;DHT22;2166;49.926;8.608;2024-01-30T13:57:41;11.50;76.40
4306;DHT22;2166;49.926;8.608;2024-01-30T14:00:11;11.40;77.00
4306;DHT22;2166;49.926;8.608;2024-01-30T14:02:45;11.30;77.00
4306;DHT22;2166;49.926;8.608;2024-01-30T14:05:14;11.40;77.30
4306;DHT22;2166;49.926;8.608;2024-01-30T14:07:43;11.40;77.10
4306;DHT22;2166;49.926;8.608;2024-01-30T14:10:12;11.40;77.20
4306;DHT22;2166;49.926;8.608;2024-01-30T14:12:42;11.40;77.30
4306;DHT22;2166;49.926;8.608;2024-01-30T14:15:11;11.40;77.40
4306;DHT22;2166;49.926;8.608;2024-01-30T14:17:56;11.40;77.30
4306;DHT22;2166;49.926;8.608;2024-01-30T14:20:26;11.30;77.50
4306;DHT22;2166;49.926;8.608;2024-01-30T14:22:55;11.20;77.70
4306;DHT22;2166;49.926;8.608;2024-01-30T14:25:24;11.00;78.00
4306;DHT22;2166;49.926;8.608;2024-01-30T14:27:52;10.90;77.80
4306;DHT22;2166;49.926;8.608;2024-01-30T14:30:21;10.90;77.90
4306;DHT22;2166;49.926;8.608;2024-01-30T14:32:50;10.90;77.90
4306;DHT22;2166;49.926;8.608;2024-01-30T14:35:20;10.90;78.00
4306;DHT22;2166;49.926;8.608;2024-01-30T14:37:49;10.80;78.00
4306;DHT22;2166;49.926;8.608;2024-01-30T14:40:18;10.70;78.10
4306;DHT22;2166;49.926;8.608;2024-01-30T14:42:46;10.70;78.00
4306;DHT22;2166;49.926;8.608;2024-01-30T14:45:15;10.60;78.10
4306;DHT22;2166;49.926;8.608;2024-01-30T14:47:44;10.60;78.20
4306;DHT22;2166;49.926;8.608;2024-01-30T14:50:14;10.50;78.20
4306;DHT22;2166;49.926;8.608;2024-01-30T14:52:45;10.40;78.20
4306;DHT22;2166;49.926;8.608;2024-01-30T14:55:14;10.40;78.20
4306;DHT22;2166;49.926;8.608;2024-01-30T14:57:43;10.30;78.10
4306;DHT22;2166;49.926;8.608;2024-01-30T15:00:14;10.30;78.20
4306;DHT22;2166;49.926;8.608;2024-01-30T15:02:43;10.30;78.20
4306;DHT22;2166;49.926;8.608;2024-01-30T15:05:13;10.30;78.20
4306;DHT22;2166;49.926;8.608;2024-01-30T15:07:42;10.30;78.20
4306;DHT22;2166;49.926;8.608;2024-01-30T15:10:13;10.30;78.10
4306;DHT22;2166;49.926;8.608;2024-01-30T15:12:42;10.20;78.10
4306;DHT22;2166;49.926;8.608;2024-01-30T15:15:10;10.20;78.10
4306;DHT22;2166;49.926;8.608;2024-01-30T15:17:39;10.20;78.00
4306;DHT22;2166;49.926;8.608;2024-01-30T15:20:08;10.20;78.00
4306;DHT22;2166;49.926;8.608;2024-01-30T15:22:36;10.20;77.90
4306;DHT22;2166;49.926;8.608;2024-01-30T15:25:07;10.10;78.00
4306;DHT22;2166;49.926;8.608;2024-01-30T15:27:37;10.00;77.70
4306;DHT22;2166;49.926;8.608;2024-01-30T15:30:06;9.90;77.80
4306;DHT22;2166;49.926;8.608;2024-01-30T15:32:35;9.90;77.70
4306;DHT22;2166;49.926;8.608;2024-01-30T15:35:03;9.90;77.70
4306;DHT22;2166;49.926;8.608;2024-01-30T15:37:33;9.90;77.60
4306;DHT22;2166;49.926;8.608;2024-01-30T15:40:02;9.90;77.60
4306;DHT22;2166;49.926;8.608;2024-01-30T15:42:33;9.90;77.60
4306;DHT22;2166;49.926;8.608;2024-01-30T15:45:04;9.90;77.60
4306;DHT22;2166;49.926;8.608;2024-01-30T15:47:32;9.90;77.50
4306;DHT22;2166;49.926;8.608;2024-01-30T15:50:01;10.00;77.40
4306;DHT22;2166;49.926;8.608;2024-01-30T15:52:30;10.00;77.40
4306;DHT22;2166;49.926;8.608;2024-01-30T15:54:58;10.00;77.40
4306;DHT22;2166;49.926;8.608;2024-01-30T15:57:27;9.90;77.30
4306;DHT22;2166;49.926;8.608;2024-01-30T15:59:56;10.00;77.20
4306;DHT22;2166;49.926;8.608;2024-01-30T16:02:26;10.00;77.40
4306;DHT22;2166;49.926;8.608;2024-01-30T16:04:55;10.00;77.40
4306;DHT22;2166;49.926;8.608;2024-01-30T16:07:24;10.00;77.30
4306;DHT22;2166;49.926;8.608;2024-01-30T16:09:53;10.00;77.20
4306;DHT22;2166;49.926;8.608;2024-01-30T16:12:23;10.00;77.20
4306;DHT22;2166;49.926;8.608;2024-01-30T16:14:52;10.00;77.20
4306;DHT22;2166;49.926;8.608;2024-01-30T16:17:20;10.00;77.00
4306;DHT22;2166;49.926;8.608;2024-01-30T16:19:50;10.00;77.20
4306;DHT22;2166;49.926;8.608;2024-01-30T16:22:19;10.00;77.10
4306;DHT22;2166;49.926;8.608;2024-01-30T16:24:47;10.00;77.00